KBAB/BAB METAR and TAF weather

Enter ICAO airport designator
Station Type Date Time Source
KBAB METAR 2019/12/12 11:58 UTC NOAA

KBAB 121158Z AUTO 16011KT 10SM FEW010 BKN021 OVC031 13/11 A3019 RMK AO2 DZB30E39 CIG 021V031 BKN V SCT SLP226 P0000 60009 70046 T01250107 10128 20117 50003 $


Station Type Date Time Source
KBAB Decoded METAR 2019/12/12 11:58 UTC NOAA

Marysville, Beale Air Force Base, CA, United States (KBAB) 39-08N 121-26W
Dec 12, 2019 - 06:58 AM EST / 2019.12.12 1158 UTC
Wind: from the SSE (160 degrees) at 13 MPH (11 KT):0
Visibility: 10 mile(s):0
Sky conditions: overcast
Precipitation last hour: A trace
Temperature: 54.5 F (12.5 C)
Dew Point: 51.3 F (10.7 C)
Relative Humidity: 88%
Pressure (altimeter): 30.19 in. Hg (1022 hPa)
Pressure tendency: 0.01 inches (0.3 hPa) higher than three hours ago
ob: KBAB 121158Z AUTO 16011KT 10SM FEW010 BKN021 OVC031 13/11 A3019 RMK AO2 DZB30E39 CIG 021V031 BKN V SCT SLP226 P0000 60009 70046 T01250107 10128 20117 50003
cycle: 12

Station Type Date Time Source
KBAB TAF 2019/12/12 11:06 UTC NOAA

TAF TAF KBAB 121100Z 1211/1317 VRB06KT 9000 -DZ BKN020 OVC030 QNH3019INS
TEMPO 1211/1216 3200 -RA BR OVC015
BECMG 1215/1216 14012KT 8000 -RA OVC015 QNH3022INS
TEMPO 1216/1220 9000 -DZ BKN009
BECMG 1220/1221 VRB06KT 9999 VCSH BKN020 QNH3028INS
BECMG 1314/1315 15009KT 9999 -RA BKN012 QNH3025INS TX15/1221Z TN08/1211Z

Example: see airport list